Observations for Trim Patrick St
| Time | AQI | Temp °C | Hum % | Pres Pa | CO μg/m³ | H₂S μg/m³ | NO μg/m³ | NO₂ μg/m³ | O₃ μg/m³ | SO₂ μg/m³ | PM1 μg/m³ | PM2.5 μg/m³ | PM10 μg/m³ |
|---|---|---|---|---|---|---|---|---|---|---|---|---|---|
| Thursday 30 July 2026 | |||||||||||||
| 18:20 | 3 | 24.9 | 35 | 68,896 | 0 | 11.34 | 1.41 | 12.22 | 91.51 | 9.29 | 4.57 | 12.11 | 13.32 |
| 18:19 | 3 | 24.9 | 35 | 68,906 | 0 | 7.78 | 1.41 | 11.64 | 84.63 | 9.21 | 3.71 | 10.53 | 11.59 |
| 18:18 | 3 | 25 | 35 | 68,924 | 0 | 10.64 | 1.44 | 9.81 | 86.45 | 9.44 | 3.71 | 10.52 | 11.57 |
| 18:17 | 3 | 25.1 | 35 | 68,918 | 0 | 13.48 | 1.39 | 16.03 | 95.98 | 9.55 | 3.71 | 9.77 | 10.74 |
| 18:16 | 3 | 25.2 | 34 | 68,910 | 0 | 9.2 | 1.42 | 12.61 | 99.15 | 10.23 | 2.86 | 8.99 | 9.89 |
| 18:15 | 3 | 25.3 | 34 | 68,900 | 0 | 6.08 | 1.38 | 9.05 | 82.68 | 9.85 | 2 | 8.19 | 9.01 |
| 18:14 | 3 | 25.4 | 35 | 68,914 | 0 | 7.32 | 1.41 | 10.03 | 97.49 | 9.81 | 2.86 | 8.96 | 9.86 |
| 18:13 | 3 | 25.5 | 34 | 68,902 | 0 | 11.33 | 1.48 | 13.21 | 98.05 | 10.38 | 2 | 8.19 | 9.01 |
| 18:12 | 3 | 25.6 | 34 | 68,916 | 0 | 6.52 | 1.41 | 9.15 | 88.11 | 10.52 | 2.86 | 9.04 | 9.94 |
| 18:11 | 3 | 25.7 | 34 | 68,937 | 0 | 6.32 | 1.4 | 11.24 | 90.98 | 10.05 | 2 | 8.21 | 9.03 |
| 18:10 | 3 | 25.8 | 33 | 68,967 | 0 | 0.62 | 1.52 | 8.81 | 76.18 | 10.59 | 2 | 7.46 | 8.21 |
| 18:09 | 3 | 25.9 | 34 | 68,971 | 0 | 0 | 1.42 | 8.73 | 71.97 | 10.46 | 2 | 8.23 | 9.06 |
| 18:08 | 3 | 26 | 34 | 68,977 | 0 | 2.47 | 1.39 | 10.16 | 75.19 | 9.96 | 2 | 7.4 | 8.14 |
| 18:07 | 3 | 26.1 | 34 | 68,979 | 0 | 2.12 | 1.45 | 10.43 | 76.39 | 10.63 | 2.86 | 8.25 | 9.08 |
| 18:06 | 3 | 26.2 | 33 | 68,983 | 0 | 7.92 | 1.5 | 12.21 | 88.93 | 10.3 | 2.86 | 8.27 | 9.09 |
| 18:05 | 3 | 26.3 | 33 | 68,991 | 0 | 1.89 | 1.42 | 12.44 | 90.39 | 10.81 | 2 | 7.47 | 8.21 |
| 18:04 | 3 | 26.4 | 33 | 68,997 | 0 | 3.19 | 1.44 | 9.7 | 72.12 | 10.92 | 2 | 8.27 | 9.09 |
| 18:03 | 3 | 26.6 | 33 | 69,004 | 0 | 3.55 | 1.36 | 14.48 | 88.74 | 11 | 2 | 8.28 | 9.11 |
| 18:02 | 3 | 26.7 | 33 | 69,016 | 0 | 0 | 1.4 | 11.21 | 67.91 | 10.24 | 2 | 7.49 | 8.23 |
| 18:01 | 3 | 26.8 | 33 | 69,002 | 0 | 2.42 | 1.34 | 12.55 | 101.06 | 11.16 | 2 | 7.51 | 8.26 |